AirNav   Everest Fuels
 
 353 users online  

89PA Kirschstein Heliport
Murrysville, Pennsylvania, USA

GOING TO MURRYSVILLE?


FAA INFORMATION EFFECTIVE 07 NOVEMBER 2019

Location

FAA Identifier: 89PA
Lat/Long: 40-27-58.2400N 079-37-41.1900W
40-27.970667N 079-37.686500W
40.4661778,-79.6281083
(estimated)
Elevation: 1195 ft. / 364 m (estimated)
Variation: 09W (1995)
From city: 5 miles SW of MURRYSVILLE, PA
Time zone: UTC -5 (UTC -4 during Daylight Saving Time)
Zip code: 15668

Heliport Operations

Heliport use: Private use. Permission required prior to landing
Activation date: 08/1998
Control tower: no
ARTCC: CLEVELAND CENTER
FSS: ALTOONA FLIGHT SERVICE STATION
Attendance: UNATNDD
Wind indicator: yes
Segmented circle: no

Heliport Communications

WX AWOS-3 at LBE (15 nm SE): 118.375 (724-539-0671)
WX ASOS at AGC (15 nm SW): PHONE 412-466-8968
WX AWOS-A at 42PN (17 nm W): PHONE 412-442-2213
WX AWOS-3 at FWQ (18 nm SW): 118.475 (724-379-5815)

Nearby radio navigation aids

VOR radial/distance  VOR name  Freq  Var
AGCr068/22.0ALLEGHENY VOR/DME110.0009W
IHDr343/32.0INDIAN HEAD VORTAC108.2006W
EWCr137/34.2ELLWOOD CITY VOR/DME115.8008W
JSTr290/37.4JOHNSTOWN VOR/DME113.0006W

 
NDB name  Hdg/Dist  Freq  Var  ID
STOYSTOWN315/39.820910WSYS ... -.-- ...

Heliport Services

Runway Information

Helipad H1

Dimensions: 26 x 26 ft. / 8 x 8 m
Surface: concrete
Traffic pattern: leftleft

Heliport Ownership and Management from official FAA records

Ownership: Privately-owned
Owner: ALEXANDER WAIBEL
2611 E LAKE SAMMAMISH SHORE LN SE
SAMMAMISH, WA 98075-9606
Phone 412-351-5529
Manager: ALEXANDER WAIBEL
2611 E LAKE SAMMAMISH SHORE LN SE
SAMMAMISH, WA 98075-9606
Phone 412-351-5529

Additional Remarks

FOR CD CTC PITTSBURGH APCH AT 412-472-5591

Instrument Procedures

There are no published instrument procedures at 89PA.

Some nearby airports with instrument procedures:

KLBE - Arnold Palmer Regional Airport (15 nm SE)
KAGC - Allegheny County Airport (15 nm SW)
6P7 - McVille Airport (16 nm N)
KFWQ - Rostraver Airport (18 nm SW)
G05 - Finleyville Airpark (22 nm SW)
 
Loc | Ops | Rwys | IFR | FBO | Links
Com | Nav | Svcs | Stats | Notes
Area around 89PA (Kirschstein Heliport)
 
Road maps at: MapQuest Bing Google
 
Aerial photo
No photo
 
Sectional chart

 
Airport distance calculator
Flying to Kirschstein Heliport? Find the distance to fly.

From to 89PA

Sunrise and sunset
Times for 12-Nov-2019
 Local
(UTC-5)
 Zulu
(UTC)
Morning civil twilight06:3311:33
Sunrise07:0212:02
Sunset17:0322:03
Evening civil twilight17:3222:32

Current date and time
Zulu (UTC)  12-Nov-2019 07:19:23
Local (UTC-5)  12-Nov-2019 02:19:23
 
METAR
KAGC 
15nm SW 
120653Z 30007KT 1 1/4SM -SN BR BKN006 OVC014 00/00 A2988 RMK AO2 SLP128 P0002 T00000000
KLBE 
16nm SE 
120655Z AUTO 26008KT 6SM RA BKN009 BKN019 OVC031 03/03 A2987 RMK AO2
KP53 
18nm SW 
120556Z AUTO 33015G29KT M06/M09 A3027 RMK AO1 PK WND 33029/0552 SLP261 60005 T10611094 11050 21067 55007
KBTP 
23nm NW 
120622Z AUTO 29007KT 1 1/2SM -SN BR BKN007 OVC010 M01/M02 A2989 RMK AO2 CIG 004V009 P0001 FZRANO
KIDI 
26nm E 
120655Z AUTO 29008G13KT 4SM BR OVC006 02/02 A2987 RMK A01
KPIT 
29nm W 
120651Z 31013KT 2SM -SN BR BKN006 OVC012 M01/M02 A2990 RMK AO2 SLP138 P0001 T10061017 $
TAF
KAGC 
15nm SW 
120520Z 1206/1306 31012G18KT 2SM -SN OVC006 FM120900 31010G18KT 6SM -SN OVC010 FM121600 31012G20KT 3SM -SN OVC025 FM122300 34012G20KT P6SM BKN025
KLBE 
16nm SE 
120520Z 1206/1306 31012G18KT 1SM -SN OVC006 FM121000 31010G18KT 6SM -SN OVC010 FM121800 31012G20KT 3SM -SN OVC015 FM130000 34012G20KT P6SM BKN015
NOTAMs
Click for the latest NOTAMs
NOTAMs are issued by the DoD/FAA and will open in a separate window not controlled by AirNav.

 

 
 

Would you like to see your business listed on this page?

 If your business provides an interesting product or service to pilots, flight crews, aircraft, or users of the Kirschstein Heliport, you should consider listing it here.  To start the listing process, click on the button below
 
Add a business
 

Other Pages about Kirschstein Heliport

Update a link
 
Copyright © AirNav, LLC. All rights reserved. Privacy Policy  Contact